Time;durP1;ratioP1;P1;durP2;ratioP2;P2;SDS_P1;SDS_P2;PMS_P1;PMS_P2;Temp;Humidity;BMP_temperature;BMP_pressure;BME280_temperature;BME280_humidity;BME280_pressure;Samples;Min_cycle;Max_cycle;Signal;HPM_P1;HPM_P2
2022/08/05 00:00:57;;;;;;;6.00;5.58;;;;;;;22.55;74.19;100659.66;450407;117;923113;-80
2022/08/05 00:02:03;;;;;;;6.35;5.85;;;;;;;22.55;74.22;100645.76;439919;120;922600;-80
2022/08/05 00:03:07;;;;;;;5.89;5.48;;;;;;;22.56;74.23;100654.92;441893;117;922658;-79
2022/08/05 00:04:12;;;;;;;5.98;5.58;;;;;;;22.55;74.25;100651.31;449475;117;922613;-80
2022/08/05 00:05:16;;;;;;;6.68;6.06;;;;;;;22.57;74.29;100656.59;450295;115;922898;-79
2022/08/05 00:06:21;;;;;;;6.52;5.86;;;;;;;22.56;74.29;100655.76;447778;117;922628;-78
2022/08/05 00:07:26;;;;;;;6.39;5.77;;;;;;;22.56;74.25;100654.92;449015;117;922834;-79
2022/08/05 00:08:31;;;;;;;7.26;6.19;;;;;;;22.55;74.29;100654.09;447533;117;922552;-79
2022/08/05 00:09:36;;;;;;;6.17;5.65;;;;;;;22.55;74.25;100651.31;450088;117;923081;-78
2022/08/05 00:10:39;;;;;;;6.50;6.00;;;;;;;22.56;74.27;100649.37;450396;117;922640;-79
2022/08/05 00:11:42;;;;;;;7.37;6.70;;;;;;;22.56;74.29;100655.76;450450;117;923057;-78
2022/08/05 00:12:46;;;;;;;6.63;6.08;;;;;;;22.56;74.26;100652.15;447607;117;922756;-78
2022/08/05 00:13:51;;;;;;;6.43;5.99;;;;;;;22.56;74.25;100646.59;444868;117;922600;-77
2022/08/05 00:14:55;;;;;;;7.09;6.55;;;;;;;22.56;74.30;100646.59;442786;117;923100;-79
2022/08/05 00:15:58;;;;;;;6.35;5.91;;;;;;;22.57;74.34;100651.03;442903;119;923003;-78
2022/08/05 00:17:03;;;;;;;6.65;5.85;;;;;;;22.56;74.35;100641.03;443066;119;922469;-79
2022/08/05 00:18:08;;;;;;;6.79;6.24;;;;;;;22.56;74.24;100654.92;441786;120;922988;-78
2022/08/05 00:19:11;;;;;;;6.87;6.23;;;;;;;22.55;74.25;100651.31;442837;120;922555;-79
2022/08/05 00:20:15;;;;;;;6.38;5.79;;;;;;;22.55;74.27;100658.86;442635;120;922603;-79
2022/08/05 00:21:20;;;;;;;6.59;6.14;;;;;;;22.55;74.32;100656.88;443817;119;925376;-79
2022/08/05 00:22:23;;;;;;;7.00;6.53;;;;;;;22.54;74.34;100660.80;444200;119;922649;-78
2022/08/05 00:23:26;;;;;;;6.72;6.24;;;;;;;22.54;74.39;100657.19;444231;119;922611;-79
2022/08/05 00:24:31;;;;;;;6.65;6.15;;;;;;;22.54;74.35;100657.19;441764;119;923118;-78
2022/08/05 00:25:35;;;;;;;6.95;6.38;;;;;;;22.53;74.40;100661.91;444124;119;922569;-80
2022/08/05 00:26:41;;;;;;;6.98;6.36;;;;;;;22.52;74.41;100654.70;443112;119;922630;-79
2022/08/05 00:27:45;;;;;;;7.04;6.52;;;;;;;22.52;74.42;100653.86;443040;119;922642;-79
2022/08/05 00:28:49;;;;;;;6.22;5.82;;;;;;;22.51;74.42;100658.59;444145;119;922557;-78
2022/08/05 00:29:52;;;;;;;6.42;5.83;;;;;;;22.49;74.34;100658.07;451352;115;922570;-79
2022/08/05 00:30:58;;;;;;;6.91;6.44;;;;;;;22.48;74.40;100656.41;454497;115;922813;-78
2022/08/05 00:32:04;;;;;;;7.40;6.85;;;;;;;22.49;74.42;100662.80;453057;117;922554;-79
2022/08/05 00:33:10;;;;;;;6.63;6.17;;;;;;;22.47;74.53;100660.30;452930;117;923103;-79
2022/08/05 00:34:15;;;;;;;6.98;6.46;;;;;;;22.48;74.47;100661.97;447521;117;922563;-79
2022/08/05 00:35:20;;;;;;;6.69;6.26;;;;;;;22.48;74.44;100659.19;442577;119;922611;-78
2022/08/05 00:36:26;;;;;;;9.69;6.85;;;;;;;22.46;74.50;100665.03;444089;119;922561;-79
2022/08/05 00:37:31;;;;;;;6.79;6.29;;;;;;;22.46;74.35;100658.64;442875;119;922562;-79
2022/08/05 00:38:38;;;;;;;6.36;5.84;;;;;;;22.44;74.38;100650.59;442660;119;922659;-79
2022/08/05 00:39:43;;;;;;;6.96;6.36;;;;;;;22.43;74.43;100648.13;445390;119;923073;-77
2022/08/05 00:40:51;;;;;;;6.93;6.44;;;;;;;22.42;74.43;100644.52;442796;119;922586;-78
2022/08/05 00:41:55;;;;;;;6.86;6.38;;;;;;;22.42;74.31;100647.29;448017;117;923139;-79
2022/08/05 00:43:01;;;;;;;7.28;6.45;;;;;;;22.41;74.28;100642.02;453337;117;922550;-78
2022/08/05 00:44:05;;;;;;;7.63;7.09;;;;;;;22.39;74.25;100638.69;453172;117;922862;-78
2022/08/05 00:45:08;;;;;;;7.22;6.67;;;;;;;22.36;74.29;100640.12;453259;117;922799;-79
2022/08/05 00:46:14;;;;;;;7.92;7.25;;;;;;;22.34;74.23;100634.02;452802;117;923135;-80
2022/08/05 00:47:18;;;;;;;7.61;6.89;;;;;;;22.31;74.12;100633.78;453174;117;922925;-76
2022/08/05 00:48:22;;;;;;;7.19;6.67;;;;;;;22.28;74.14;100637.95;453346;117;922801;-78
2022/08/05 00:49:27;;;;;;;7.74;7.12;;;;;;;22.28;74.18;100639.90;452691;117;922562;-78
2022/08/05 00:50:33;;;;;;;7.46;6.89;;;;;;;22.23;74.25;100632.44;452850;117;923058;-78
2022/08/05 00:51:38;;;;;;;7.30;6.68;;;;;;;22.24;74.31;100636.88;453176;117;922855;-79
2022/08/05 00:52:43;;;;;;;7.37;6.86;;;;;;;22.24;74.40;100633.27;450870;117;922575;-79
2022/08/05 00:53:48;;;;;;;7.43;6.82;;;;;;;22.23;74.48;100628.83;453016;117;922629;-79
2022/08/05 00:54:53;;;;;;;7.68;7.03;;;;;;;22.22;74.45;100627.20;450770;117;922555;-79
2022/08/05 00:55:58;;;;;;;7.48;6.79;;;;;;;22.23;74.56;100628.83;453180;117;923171;-79
2022/08/05 00:57:03;;;;;;;6.62;6.23;;;;;;;22.23;74.61;100629.66;453210;117;930555;-78
2022/08/05 00:58:06;;;;;;;7.15;6.44;;;;;;;22.24;74.57;100630.50;453295;117;922663;-79
2022/08/05 00:59:11;;;;;;;7.48;6.91;;;;;;;22.23;74.58;100632.44;452901;117;923196;-79
2022/08/05 01:00:16;;;;;;;6.55;6.11;;;;;;;22.23;74.61;100617.72;453080;117;922980;-78
2022/08/05 01:01:21;;;;;;;7.02;6.49;;;;;;;22.22;74.65;100621.65;453107;117;922762;-78
2022/08/05 01:02:26;;;;;;;7.46;6.92;;;;;;;22.22;74.53;100622.45;450904;117;923443;-79
2022/08/05 01:03:29;;;;;;;7.26;6.46;;;;;;;22.22;74.54;100628.00;453422;117;922599;-79
2022/08/05 01:04:35;;;;;;;7.04;6.48;;;;;;;22.21;74.53;100623.59;452956;117;922824;-79
2022/08/05 01:05:40;;;;;;;7.32;6.83;;;;;;;22.21;74.61;100620.81;452667;117;922602;-78
2022/08/05 01:06:46;;;;;;;7.75;7.25;;;;;;;22.21;74.57;100625.54;453264;117;922525;-78
2022/08/05 01:07:51;;;;;;;7.24;6.58;;;;;;;22.20;74.45;100624.70;453166;117;922977;-78
2022/08/05 01:08:56;;;;;;;7.53;7.03;;;;;;;22.21;74.37;100631.09;450883;117;922942;-79
2022/08/05 01:10:02;;;;;;;7.34;6.76;;;;;;;22.18;74.28;100632.48;453287;117;922777;-79
2022/08/05 01:11:10;;;;;;;7.42;6.68;;;;;;;22.17;74.27;100633.60;452583;117;930543;-79
2022/08/05 01:12:18;;;;;;;7.37;6.91;;;;;;;22.17;74.34;100627.22;453108;117;922575;-78
2022/08/05 01:13:41;;;;;;;7.02;6.42;;;;;;;22.17;74.35;100635.55;453132;117;922954;-78
2022/08/05 01:15:05;;;;;;;7.17;6.68;;;;;;;22.17;74.38;100633.60;450642;117;922932;-78
2022/08/05 01:16:13;;;;;;;7.64;6.84;;;;;;;22.15;74.46;100629.47;450779;117;922852;-78
2022/08/05 01:17:31;;;;;;;7.36;6.79;;;;;;;22.14;74.45;100634.20;451956;117;922575;-79
2022/08/05 01:18:40;;;;;;;8.31;7.52;;;;;;;22.13;74.40;100643.64;450276;117;923083;-79
2022/08/05 01:19:46;;;;;;;6.87;6.39;;;;;;;22.12;74.44;100638.37;453142;117;923339;-80
2022/08/05 01:21:11;;;;;;;8.19;7.69;;;;;;;22.12;74.46;100630.87;453122;117;922919;-79
2022/08/05 01:22:37;;;;;;;8.07;7.04;;;;;;;22.12;74.29;100641.98;453136;117;922880;-78
2022/08/05 01:24:10;;;;;;;8.61;7.61;;;;;;;22.10;74.24;100641.45;453199;117;922984;-79
2022/08/05 01:25:53;;;;;;;8.04;7.27;;;;;;;22.09;74.32;100637.02;453061;117;922493;-77
2022/08/05 01:27:33;;;;;;;7.60;7.00;;;;;;;22.08;74.16;100631.74;453147;117;922710;-79
2022/08/05 01:28:47;;;;;;;7.59;7.09;;;;;;;22.05;74.07;100630.39;452614;117;922575;-79
2022/08/05 01:29:54;;;;;;;6.75;6.25;;;;;;;22.00;74.03;100628.45;450927;117;922612;-80
2022/08/05 01:31:17;;;;;;;7.44;6.80;;;;;;;22.00;74.10;100622.08;451846;117;923551;-79
2022/08/05 01:32:24;;;;;;;7.15;6.62;;;;;;;21.99;74.17;100626.83;452302;117;923057;-79
2022/08/05 01:33:32;;;;;;;7.94;7.36;;;;;;;21.98;74.22;100627.94;452996;117;922608;-78
2022/08/05 01:34:41;;;;;;;7.62;6.99;;;;;;;21.99;74.21;100629.60;443425;119;922871;-79
2022/08/05 01:35:48;;;;;;;7.56;6.93;;;;;;;21.99;74.25;100634.32;443515;119;922648;-79
2022/08/05 01:36:57;;;;;;;7.65;6.95;;;;;;;21.99;74.24;100632.38;443427;119;922525;-79
2022/08/05 01:38:04;;;;;;;7.69;7.09;;;;;;;21.99;74.13;100631.55;443399;119;923048;-78
2022/08/05 01:39:07;;;;;;;7.37;6.77;;;;;;;22.00;74.12;100624.84;443466;119;922986;-79
2022/08/05 01:40:13;;;;;;;7.45;6.89;;;;;;;22.00;74.08;100631.23;443562;119;923068;-79
2022/08/05 01:41:21;;;;;;;7.68;6.97;;;;;;;22.00;74.03;100628.45;443415;119;922791;-79
2022/08/05 01:42:30;;;;;;;7.98;7.21;;;;;;;22.00;73.88;100633.17;451752;117;922629;-78
2022/08/05 01:43:36;;;;;;;8.17;7.45;;;;;;;22.00;73.86;100627.63;453158;117;922510;-79
2022/08/05 01:44:43;;;;;;;8.31;7.52;;;;;;;21.99;73.81;100632.38;452982;117;922561;-79
2022/08/05 01:45:48;;;;;;;7.55;6.83;;;;;;;21.99;73.79;100635.16;453211;117;923030;-78
2022/08/05 01:46:54;;;;;;;8.17;7.36;;;;;;;21.99;73.70;100634.32;452528;117;922905;-79
2022/08/05 01:47:59;;;;;;;7.78;7.08;;;;;;;21.98;73.62;100641.82;453278;117;922621;-79
2022/08/05 01:49:05;;;;;;;7.73;7.23;;;;;;;21.97;73.67;100640.16;453201;117;923120;-78
2022/08/05 01:50:32;;;;;;;7.71;6.93;;;;;;;21.98;73.77;100649.32;450904;117;922520;-79
2022/08/05 01:51:36;;;;;;;7.37;6.66;;;;;;;21.98;73.94;100643.77;452974;117;923051;-80
2022/08/05 01:52:41;;;;;;;7.02;6.52;;;;;;;21.98;73.99;100647.37;453266;117;923179;-79
2022/08/05 01:53:48;;;;;;;7.22;6.72;;;;;;;21.99;73.91;100653.76;453153;117;922475;-79
2022/08/05 01:54:57;;;;;;;7.77;6.69;;;;;;;21.98;73.91;100650.15;452279;117;922633;-79
2022/08/05 01:56:03;;;;;;;7.54;6.98;;;;;;;21.99;73.81;100651.81;453200;117;922740;-80
2022/08/05 01:57:08;;;;;;;8.12;7.34;;;;;;;21.99;73.83;100653.76;453163;117;922572;-79
2022/08/05 01:58:15;;;;;;;7.18;6.72;;;;;;;22.00;73.78;100653.45;450776;117;922669;-79
2022/08/05 01:59:22;;;;;;;7.63;6.80;;;;;;;22.00;73.79;100656.22;453238;117;922614;-79
2022/08/05 02:00:28;;;;;;;7.24;6.62;;;;;;;22.00;73.70;100645.12;453125;117;922488;-79
2022/08/05 02:01:33;;;;;;;7.25;6.81;;;;;;;22.02;73.70;100661.50;453167;117;922909;-79
2022/08/05 02:02:42;;;;;;;7.30;6.81;;;;;;;22.03;73.67;100660.39;452710;117;922613;-79
2022/08/05 02:03:50;;;;;;;7.78;7.22;;;;;;;22.03;73.71;100666.77;452000;117;922524;-79
2022/08/05 02:04:55;;;;;;;7.38;6.81;;;;;;;22.02;73.65;100662.33;453104;117;922686;-79
2022/08/05 02:06:00;;;;;;;7.20;6.60;;;;;;;22.03;73.63;100658.44;453114;117;922575;-78
2022/08/05 02:07:06;;;;;;;7.36;6.70;;;;;;;22.04;73.60;100662.88;450685;117;922512;-79
2022/08/05 02:08:09;;;;;;;7.22;6.72;;;;;;;22.05;73.56;100663.72;453245;117;922516;-79
2022/08/05 02:09:13;;;;;;;7.59;7.01;;;;;;;22.05;73.56;100663.72;453213;117;930708;-79
2022/08/05 02:10:19;;;;;;;7.53;6.91;;;;;;;22.07;73.58;100666.18;453174;117;922673;-79
2022/08/05 02:11:25;;;;;;;7.29;6.72;;;;;;;22.07;73.61;100663.41;452422;117;922630;-80
2022/08/05 02:12:58;;;;;;;7.68;6.99;;;;;;;22.08;73.54;100665.06;452448;117;922598;-78
2022/08/05 02:14:14;;;;;;;7.23;6.61;;;;;;;22.07;73.58;100669.79;453226;117;923042;-80
2022/08/05 02:15:22;;;;;;;8.06;7.46;;;;;;;22.08;73.56;100659.52;453134;117;922611;-79
2022/08/05 02:16:31;;;;;;;8.68;7.40;;;;;;;22.08;73.58;100665.06;453186;117;923031;-79
2022/08/05 02:17:38;;;;;;;8.02;7.35;;;;;;;22.06;73.56;100654.23;450626;117;922685;-78
2022/08/05 02:18:49;;;;;;;7.32;6.76;;;;;;;22.07;73.52;100657.84;453027;117;922572;-79
2022/08/05 02:19:56;;;;;;;7.43;6.83;;;;;;;22.05;73.52;100661.73;453146;117;923112;-79
2022/08/05 02:21:14;;;;;;;6.87;6.32;;;;;;;22.05;73.53;100666.48;453162;117;922635;-79
2022/08/05 02:22:33;;;;;;;7.69;7.09;;;;;;;22.06;73.48;100668.13;453172;117;923016;-79
2022/08/05 02:23:40;;;;;;;7.08;6.56;;;;;;;22.04;73.44;100665.66;447320;117;923184;-76
2022/08/05 02:24:52;;;;;;;7.09;6.47;;;;;;;22.04;73.47;100670.38;453139;117;922545;-78
2022/08/05 02:25:58;;;;;;;7.33;6.68;;;;;;;22.04;73.43;100676.77;453208;117;922615;-79
2022/08/05 02:27:06;;;;;;;7.39;6.88;;;;;;;22.03;73.40;100669.55;453131;117;922552;-79
2022/08/05 02:28:13;;;;;;;7.53;7.00;;;;;;;22.03;73.38;100671.49;453073;117;922612;-79
2022/08/05 02:29:20;;;;;;;8.21;7.27;;;;;;;22.02;73.32;100661.50;453177;117;922553;-79
2022/08/05 02:30:29;;;;;;;7.34;6.45;;;;;;;22.02;73.22;100669.83;444344;117;922532;-79
2022/08/05 02:31:34;;;;;;;8.08;6.79;;;;;;;22.02;73.19;100662.33;452719;117;922525;-79
2022/08/05 02:32:39;;;;;;;8.99;7.52;;;;;;;22.02;73.16;100662.33;453150;117;922769;-80
2022/08/05 02:33:54;;;;;;;7.38;6.85;;;;;;;22.03;73.35;100668.72;453163;117;922987;-78
2022/08/05 02:35:02;;;;;;;8.62;7.24;;;;;;;22.03;73.35;100668.72;452884;117;930524;-80
2022/08/05 02:36:10;;;;;;;7.44;6.78;;;;;;;22.04;73.11;100670.38;452034;117;922518;-79
2022/08/05 02:37:16;;;;;;;6.66;6.26;;;;;;;22.03;73.01;100671.49;452882;117;922626;-78
2022/08/05 02:38:20;;;;;;;7.02;6.39;;;;;;;22.04;72.93;100670.38;453340;117;922486;-80
2022/08/05 02:39:28;;;;;;;7.27;6.63;;;;;;;22.03;72.98;100675.10;452719;117;922650;-80
2022/08/05 02:40:32;;;;;;;7.62;6.98;;;;;;;22.04;72.99;100671.21;453196;117;922493;-79
2022/08/05 02:41:38;;;;;;;7.58;6.81;;;;;;;22.04;72.98;100671.21;453289;117;922995;-79
2022/08/05 02:42:45;;;;;;;7.68;7.07;;;;;;;22.05;72.88;100681.17;450877;117;922673;-79
2022/08/05 02:43:51;;;;;;;7.55;6.93;;;;;;;22.06;72.80;100673.68;452408;117;923306;-79
2022/08/05 02:44:57;;;;;;;7.69;7.16;;;;;;;22.05;72.79;100667.30;450590;117;922910;-79
2022/08/05 02:46:01;;;;;;;7.39;6.68;;;;;;;22.06;72.74;100679.23;453146;117;922504;-79
2022/08/05 02:47:08;;;;;;;6.99;6.32;;;;;;;22.07;72.69;100680.89;453267;117;922996;-79
2022/08/05 02:48:13;;;;;;;6.67;6.10;;;;;;;22.06;72.63;100673.68;453051;117;930534;-79
2022/08/05 02:49:17;;;;;;;10.81;6.85;;;;;;;22.09;72.63;100680.62;453237;117;922594;-79
2022/08/05 02:50:23;;;;;;;7.16;6.50;;;;;;;22.09;72.62;100664.78;452937;117;922595;-78
2022/08/05 02:51:27;;;;;;;6.98;6.42;;;;;;;22.10;72.54;100673.95;453180;117;923065;-80
2022/08/05 02:52:32;;;;;;;7.16;6.43;;;;;;;22.11;72.47;100676.41;450798;117;930577;-79
2022/08/05 02:53:38;;;;;;;6.84;6.34;;;;;;;22.13;72.44;100681.69;453266;117;922604;-79
2022/08/05 02:54:44;;;;;;;7.02;6.42;;;;;;;22.14;72.40;100681.41;453160;117;922987;-79
2022/08/05 02:55:51;;;;;;;7.11;6.57;;;;;;;22.14;72.26;100678.63;452541;117;922582;-81
2022/08/05 02:56:58;;;;;;;7.08;6.27;;;;;;;22.17;72.24;100679.98;452373;117;922599;-79
2022/08/05 02:58:02;;;;;;;7.29;6.50;;;;;;;22.18;72.24;100676.09;453216;117;922911;-78
2022/08/05 02:59:10;;;;;;;7.26;6.70;;;;;;;22.18;72.15;100679.70;452269;117;922519;-80
2022/08/05 03:00:14;;;;;;;6.45;5.99;;;;;;;22.18;72.16;100678.88;453243;117;922609;-78
2022/08/05 03:01:20;;;;;;;6.56;6.02;;;;;;;22.19;72.13;100674.98;453421;117;923078;-79
2022/08/05 03:02:27;;;;;;;6.87;6.27;;;;;;;22.19;72.06;100681.37;453272;117;922563;-78
2022/08/05 03:03:31;;;;;;;6.74;6.21;;;;;;;22.19;72.03;100684.14;453309;117;922525;-79
2022/08/05 03:04:38;;;;;;;7.58;6.38;;;;;;;22.20;71.97;100684.98;450906;117;922674;-79
2022/08/05 03:05:42;;;;;;;6.29;5.79;;;;;;;22.21;71.96;100681.92;453292;117;923433;-79
2022/08/05 03:06:47;;;;;;;6.64;6.07;;;;;;;22.22;71.96;100683.55;451078;117;923064;-78
2022/08/05 03:07:52;;;;;;;6.63;6.21;;;;;;;22.24;71.86;100683.27;451999;117;922662;-79
2022/08/05 03:08:58;;;;;;;6.67;6.03;;;;;;;22.24;71.79;100683.27;450848;117;923064;-78
2022/08/05 03:10:03;;;;;;;6.80;6.23;;;;;;;22.24;71.73;100689.66;453147;117;922804;-78
2022/08/05 03:11:21;;;;;;;6.86;6.32;;;;;;;22.28;71.71;100689.90;453263;117;922667;-78
2022/08/05 03:12:35;;;;;;;6.88;6.27;;;;;;;22.28;71.71;100685.17;450642;117;922634;-79
2022/08/05 03:13:38;;;;;;;6.44;5.68;;;;;;;22.32;71.74;100682.67;452770;117;922772;-78
2022/08/05 03:14:43;;;;;;;6.36;5.91;;;;;;;22.33;71.83;100681.52;450691;117;923336;-79
2022/08/05 03:15:48;;;;;;;6.22;5.80;;;;;;;22.34;71.72;100680.41;452942;117;922429;-79
2022/08/05 03:16:53;;;;;;;9.22;6.37;;;;;;;22.35;71.69;100682.07;453167;117;923034;-78
2022/08/05 03:17:56;;;;;;;6.06;5.66;;;;;;;22.35;71.70;100688.46;453370;117;922679;-78
2022/08/05 03:19:02;;;;;;;6.34;5.72;;;;;;;22.36;71.62;100681.79;453199;116;922558;-78
2022/08/05 03:20:08;;;;;;;5.81;5.45;;;;;;;22.36;71.54;100670.68;450912;117;922600;-78
2022/08/05 03:21:12;;;;;;;5.51;5.07;;;;;;;22.39;71.47;100677.59;453149;117;923019;-78
2022/08/05 03:22:16;;;;;;;5.77;5.34;;;;;;;22.40;71.31;100674.52;453228;117;923084;-80
2022/08/05 03:23:21;;;;;;;5.62;5.21;;;;;;;22.41;71.27;100676.19;450694;117;923051;-80
2022/08/05 03:24:26;;;;;;;6.84;5.50;;;;;;;22.43;71.04;100675.91;453168;117;922697;-79
2022/08/05 03:25:32;;;;;;;6.30;5.74;;;;;;;22.45;70.90;100679.20;453016;117;922926;-79
2022/08/05 03:26:37;;;;;;;6.62;6.01;;;;;;;22.44;70.85;100675.59;450903;117;922592;-78
2022/08/05 03:27:40;;;;;;;7.47;6.09;;;;;;;22.46;70.78;100676.14;453299;117;923086;-78
2022/08/05 03:28:46;;;;;;;10.41;6.18;;;;;;;22.47;70.74;100685.31;450794;117;922561;-78
2022/08/05 03:29:50;;;;;;;5.82;5.36;;;;;;;22.49;70.71;100676.69;450115;117;922829;-78
2022/08/05 03:30:56;;;;;;;5.57;5.14;;;;;;;22.51;70.59;100674.43;453831;115;922546;-78
2022/08/05 03:32:00;;;;;;;7.56;5.47;;;;;;;22.51;70.55;100669.70;453208;117;922511;-79
2022/08/05 03:33:05;;;;;;;5.56;5.08;;;;;;;22.52;70.38;100671.37;453267;117;930614;-77
2022/08/05 03:34:09;;;;;;;5.83;5.29;;;;;;;22.53;70.33;100673.03;453156;117;922693;-78
2022/08/05 03:35:13;;;;;;;5.87;5.26;;;;;;;22.54;70.23;100671.09;452017;110;922960;-79
2022/08/05 03:36:16;;;;;;;5.97;5.27;;;;;;;22.56;70.12;100679.94;442753;119;923230;-78
2022/08/05 03:37:21;;;;;;;6.22;5.66;;;;;;;22.58;70.13;100677.71;441944;120;922768;-79
2022/08/05 03:38:26;;;;;;;6.16;5.54;;;;;;;22.59;70.08;100674.64;442640;120;922574;-78
2022/08/05 03:39:31;;;;;;;7.14;5.41;;;;;;;22.61;70.04;100682.67;442446;120;923106;-79
2022/08/05 03:40:41;;;;;;;6.24;5.07;;;;;;;22.62;70.01;100679.61;439372;120;922600;-79
2022/08/05 03:41:46;;;;;;;6.87;5.25;;;;;;;22.63;69.99;100684.05;442411;118;922643;-79
2022/08/05 03:42:51;;;;;;;6.10;5.53;;;;;;;22.65;69.93;100683.77;449589;118;923068;-79
2022/08/05 03:43:55;;;;;;;6.28;5.77;;;;;;;22.66;69.94;100688.20;450095;118;923095;-79
2022/08/05 03:45:01;;;;;;;6.11;5.38;;;;;;;22.67;69.86;100687.89;447136;118;922655;-80
2022/08/05 03:46:06;;;;;;;5.37;4.92;;;;;;;22.68;69.75;100697.89;447272;118;922617;-79
2022/08/05 03:47:10;;;;;;;8.39;5.39;;;;;;;22.70;69.66;100692.88;450061;118;922567;-79
2022/08/05 03:48:15;;;;;;;5.93;5.37;;;;;;;22.71;69.65;100691.80;448847;118;922967;-79
2022/08/05 03:49:20;;;;;;;4.99;4.56;;;;;;;22.73;69.50;100694.27;449405;118;923127;-78
2022/08/05 03:50:48;;;;;;;5.22;4.78;;;;;;;22.75;69.47;100695.64;448786;118;923035;-79
2022/08/05 03:51:57;;;;;;;6.26;5.23;;;;;;;22.77;69.54;100703.70;449975;118;922613;-79
2022/08/05 03:53:06;;;;;;;4.87;4.48;;;;;;;22.79;69.45;100699.48;447122;118;922629;-79
2022/08/05 03:54:18;;;;;;;6.87;5.16;;;;;;;22.80;69.41;100701.16;449599;118;922821;-79
2022/08/05 03:55:27;;;;;;;5.61;5.11;;;;;;;22.82;69.39;100703.65;449465;118;922608;-80
2022/08/05 03:56:44;;;;;;;9.11;5.33;;;;;;;22.83;69.36;100700.55;447059;118;922926;-79
2022/08/05 03:57:51;;;;;;;6.06;5.28;;;;;;;22.85;69.49;100698.32;450002;118;922685;-79
2022/08/05 03:58:59;;;;;;;5.13;4.74;;;;;;;22.88;69.43;100704.42;449792;118;922703;-79
2022/08/05 04:00:08;;;;;;;6.09;5.11;;;;;;;22.88;69.39;100700.50;449657;118;923484;-79
2022/08/05 04:01:18;;;;;;;11.79;5.34;;;;;;;22.92;69.31;100699.93;449684;118;923109;-79
2022/08/05 04:02:29;;;;;;;5.44;4.88;;;;;;;22.93;69.22;100710.77;449683;118;922778;-80
2022/08/05 04:03:37;;;;;;;6.13;4.97;;;;;;;22.95;69.13;100713.23;446730;118;922843;-79
2022/08/05 04:04:42;;;;;;;6.12;4.85;;;;;;;22.97;69.15;100708.22;449691;118;922583;-79
2022/08/05 04:05:48;;;;;;;6.01;5.02;;;;;;;22.98;69.12;100715.44;449734;118;922650;-79
2022/08/05 04:06:52;;;;;;;7.00;4.87;;;;;;;23.00;69.02;100713.17;449840;118;922547;-79
2022/08/05 04:07:56;;;;;;;5.50;5.04;;;;;;;23.02;68.90;100708.16;449800;118;922555;-80
2022/08/05 04:09:04;;;;;;;9.55;5.32;;;;;;;23.03;68.86;100713.44;449709;118;922546;-79
2022/08/05 04:10:09;;;;;;;6.01;4.61;;;;;;;23.06;68.81;100717.56;449661;118;923170;-78
2022/08/05 04:11:15;;;;;;;5.08;4.63;;;;;;;23.07;68.67;100716.45;448927;118;922715;-79
2022/08/05 04:12:18;;;;;;;6.34;5.15;;;;;;;23.09;68.59;100719.77;449847;118;922561;-79
2022/08/05 04:13:24;;;;;;;5.34;4.84;;;;;;;23.10;68.54;100710.31;449133;118;922954;-79
2022/08/05 04:14:30;;;;;;;5.27;4.68;;;;;;;23.11;68.51;100712.78;449636;118;923087;-79
2022/08/05 04:15:34;;;;;;;7.12;5.35;;;;;;;23.14;68.55;100720.55;450629;117;922524;-80
2022/08/05 04:16:39;;;;;;;5.80;5.04;;;;;;;23.15;68.41;100716.65;450599;117;922703;-78
2022/08/05 04:17:43;;;;;;;4.92;4.28;;;;;;;23.17;68.29;100716.33;450671;117;922607;-80
2022/08/05 04:18:48;;;;;;;5.44;4.99;;;;;;;23.19;68.17;100717.71;447726;117;922533;-78
2022/08/05 04:19:53;;;;;;;6.04;4.98;;;;;;;23.20;68.11;100718.54;450154;117;923328;-79
2022/08/05 04:20:58;;;;;;;7.56;5.12;;;;;;;23.21;68.06;100711.86;450364;117;922608;-79
2022/08/05 04:22:01;;;;;;;5.59;5.13;;;;;;;23.25;68.03;100710.14;450784;117;922595;-79
2022/08/05 04:23:08;;;;;;;5.12;4.74;;;;;;;23.25;67.95;100718.48;449430;117;922657;-79
2022/08/05 04:24:13;;;;;;;5.34;4.36;;;;;;;23.28;67.88;100720.66;449854;117;923034;-79
2022/08/05 04:25:18;;;;;;;4.64;4.23;;;;;;;23.29;67.83;100717.59;450101;117;922933;-80
2022/08/05 04:26:24;;;;;;;4.93;4.41;;;;;;;23.31;67.77;100724.81;447764;117;922588;-80
2022/08/05 04:27:27;;;;;;;6.22;5.49;;;;;;;23.33;67.65;100715.03;450767;117;922624;-80
2022/08/05 04:28:32;;;;;;;6.76;4.84;;;;;;;23.35;67.68;100717.52;447797;117;922882;-80
2022/08/05 04:29:35;;;;;;;5.40;4.79;;;;;;;23.35;67.67;100715.58;450687;117;922538;-79
2022/08/05 04:30:39;;;;;;;4.89;4.48;;;;;;;23.37;67.58;100718.07;449918;117;922577;-79
2022/08/05 04:31:45;;;;;;;5.17;4.56;;;;;;;23.40;67.63;100717.46;449774;118;922563;-79
2022/08/05 04:32:50;;;;;;;5.29;4.76;;;;;;;23.41;67.60;100706.05;449757;118;922624;-79
2022/08/05 04:33:53;;;;;;;5.57;4.72;;;;;;;23.43;67.54;100708.54;447473;118;923342;-79
2022/08/05 04:34:58;;;;;;;6.76;4.97;;;;;;;23.45;67.53;100706.27;439289;119;922504;-79
2022/08/05 04:36:01;;;;;;;5.31;4.83;;;;;;;23.45;67.47;100704.31;442293;120;922957;-79
2022/08/05 04:37:06;;;;;;;7.34;4.97;;;;;;;23.47;67.45;100702.11;439306;120;923005;-79
2022/08/05 04:38:09;;;;;;;4.61;4.30;;;;;;;23.48;67.27;100702.94;442308;120;923008;-80
2022/08/05 04:39:14;;;;;;;5.20;4.75;;;;;;;23.49;67.28;100699.84;441631;120;923273;-79
2022/08/05 04:40:17;;;;;;;4.99;4.59;;;;;;;23.49;67.35;100702.62;442162;119;922544;-78
2022/08/05 04:41:22;;;;;;;5.72;4.99;;;;;;;23.50;67.41;100712.63;442191;120;922672;-79
2022/08/05 04:42:27;;;;;;;5.76;4.64;;;;;;;23.53;67.45;100706.48;444742;118;922897;-79
2022/08/05 04:43:31;;;;;;;10.99;4.91;;;;;;;23.55;67.39;100707.00;448583;118;922658;-80
2022/08/05 04:44:35;;;;;;;5.66;4.94;;;;;;;23.57;67.37;100701.14;448590;118;922695;-80
2022/08/05 04:45:38;;;;;;;4.66;4.22;;;;;;;23.57;67.39;100707.54;448585;118;922723;-79
2022/08/05 04:46:43;;;;;;;8.81;4.87;;;;;;;23.59;67.45;100708.08;445610;118;922915;-79
2022/08/05 04:47:48;;;;;;;5.09;4.47;;;;;;;23.60;67.41;100698.58;448195;118;923171;-79
2022/08/05 04:48:52;;;;;;;4.99;4.31;;;;;;;23.62;67.36;100707.47;448562;118;922611;-79
2022/08/05 04:49:55;;;;;;;4.90;4.56;;;;;;;23.63;67.31;100711.92;448568;118;931006;-79
2022/08/05 04:51:00;;;;;;;5.30;4.26;;;;;;;23.63;67.23;100706.34;447593;118;922887;-81
2022/08/05 04:52:05;;;;;;;4.96;4.57;;;;;;;23.66;67.22;100710.47;447453;118;922655;-80
2022/08/05 04:53:11;;;;;;;7.73;4.69;;;;;;;23.68;67.23;100711.02;448422;118;922632;-80
2022/08/05 04:54:18;;;;;;;4.89;4.07;;;;;;;23.69;67.24;100710.72;448487;118;922773;-79
2022/08/05 04:55:21;;;;;;;4.70;4.12;;;;;;;23.72;67.23;100711.23;449448;118;922702;-80
2022/08/05 04:56:26;;;;;;;5.12;4.47;;;;;;;23.74;67.20;100708.98;446770;118;923254;-79
2022/08/05 04:57:31;;;;;;;4.31;3.91;;;;;;;23.76;67.17;100707.58;448544;118;922621;-80
2022/08/05 04:58:36;;;;;;;4.60;4.27;;;;;;;23.79;67.18;100700.56;449257;118;922595;-79
2022/08/05 04:59:39;;;;;;;4.63;4.26;;;;;;;23.80;67.05;100705.02;449780;118;922669;-79
2022/08/05 05:00:43;;;;;;;4.68;4.28;;;;;;;23.82;66.94;100699.98;449716;118;930589;-80
2022/08/05 05:01:49;;;;;;;4.91;4.48;;;;;;;23.82;66.95;100703.56;449227;118;922848;-79
2022/08/05 05:02:54;;;;;;;5.46;4.23;;;;;;;23.83;66.93;100702.45;446796;118;922944;-81
2022/08/05 05:03:59;;;;;;;5.49;4.99;;;;;;;23.85;66.87;100694.63;448911;118;922627;-80
2022/08/05 05:05:03;;;;;;;10.94;4.49;;;;;;;23.88;66.82;100701.54;449870;118;922717;-79
2022/08/05 05:06:10;;;;;;;5.46;4.95;;;;;;;23.89;66.80;100700.42;446780;118;923158;-79
2022/08/05 05:07:16;;;;;;;4.77;4.38;;;;;;;23.91;66.71;100704.57;446744;118;922600;-81